Time,TemperatureF,DewpointF,PressureIn,WindDirection,WindDirectionDegrees,WindSpeedMPH,WindSpeedGustMPH,Humidity,HourlyPrecipIn,Conditions,Clouds,dailyrainin,SoftwareType,DateUTC
2013-01-09 02:02:00,44.0,-99.9,-100.00,West,261,8.0,10.0,-999,-99.99,,,-99.99,,2013-01-09 10:02:00,
2013-01-09 02:12:00,44.0,-99.9,-100.00,West,261,8.0,10.0,-999,-99.99,,,-99.99,,2013-01-09 10:12:00,
2013-01-09 05:03:00,43.0,-99.9,-100.00,West,262,12.0,12.0,-999,-99.99,,,-99.99,,2013-01-09 13:03:00,
2013-01-09 05:12:00,43.0,-99.9,-100.00,West,262,12.0,12.0,-999,-99.99,,,-99.99,,2013-01-09 13:12:00,
2013-01-09 06:00:00,43.0,-99.9,-100.00,West,261,6.0,9.0,-999,-99.99,,,-99.99,,2013-01-09 14:00:00,
2013-01-09 06:53:00,43.0,-99.9,-100.00,West,261,6.0,9.0,-999,-99.99,,,-99.99,,2013-01-09 14:53:00,
2013-01-09 09:03:00,54.0,-99.9,-100.00,NW,318,2.0,3.0,-999,-99.99,,,-99.99,,2013-01-09 17:03:00,
2013-01-09 09:10:00,54.0,-99.9,-100.00,North,11,3.0,4.0,-999,-99.99,,,-99.99,,2013-01-09 17:10:00,
2013-01-09 09:23:00,55.0,-99.9,-100.00,ENE,73,1.0,2.0,-999,-99.99,,,-99.99,,2013-01-09 17:23:00,
2013-01-09 09:54:00,54.0,-99.9,-100.00,North,11,3.0,4.0,-999,-99.99,,,-99.99,,2013-01-09 17:54:00,
2013-01-09 10:03:00,54.0,-99.9,-100.00,North,11,3.0,4.0,-999,-99.99,,,-99.99,,2013-01-09 18:03:00,
2013-01-09 10:33:00,57.0,-99.9,-100.00,ENE,77,2.0,2.0,-999,-99.99,,,-99.99,,2013-01-09 18:33:00,
2013-01-09 10:44:00,57.0,-99.9,-100.00,ENE,77,2.0,2.0,-999,-99.99,,,-99.99,,2013-01-09 18:44:00,
2013-01-09 10:53:00,58.0,-99.9,-100.00,East,86,0.0,3.0,-999,-99.99,,,-99.99,,2013-01-09 18:53:00,
2013-01-09 11:03:00,58.0,-99.9,-100.00,East,84,3.0,3.0,-999,-99.99,,,-99.99,,2013-01-09 19:03:00,
2013-01-09 11:13:00,58.0,-99.9,-100.00,East,84,3.0,3.0,-999,-99.99,,,-99.99,,2013-01-09 19:13:00,
2013-01-09 12:53:00,62.0,-99.9,-100.00,East,81,3.0,5.0,-999,-99.99,,,-99.99,,2013-01-09 20:53:00,
2013-01-09 13:04:00,62.0,-99.9,-100.00,East,81,3.0,5.0,-999,-99.99,,,-99.99,,2013-01-09 21:04:00,
2013-01-09 14:10:00,63.0,-99.9,-100.00,SE,126,9.0,11.0,-999,-99.99,,,-99.99,,2013-01-09 22:10:00,
2013-01-09 14:33:00,64.0,-99.9,-100.00,SE,127,6.0,9.0,-999,-99.99,,,-99.99,,2013-01-09 22:33:00,
2013-01-09 14:43:00,64.0,-99.9,-100.00,SE,127,6.0,9.0,-999,-99.99,,,-99.99,,2013-01-09 22:43:00,
2013-01-09 14:50:00,62.0,-99.9,-100.00,SE,144,10.0,16.0,-999,-99.99,,,-99.99,,2013-01-09 22:50:00,
2013-01-09 14:53:00,63.0,-99.9,-100.00,SE,126,9.0,11.0,-999,-99.99,,,-99.99,,2013-01-09 22:53:00,
2013-01-09 15:03:00,63.0,-99.9,-100.00,SE,126,9.0,11.0,-999,-99.99,,,-99.99,,2013-01-09 23:03:00,
2013-01-09 15:23:00,63.0,-99.9,-100.00,SSE,154,10.0,12.0,-999,-99.99,,,-99.99,,2013-01-09 23:23:00,
2013-01-09 15:33:00,62.0,-99.9,-100.00,SE,144,10.0,16.0,-999,-99.99,,,-99.99,,2013-01-09 23:33:00,
2013-01-09 15:43:00,62.0,-99.9,-100.00,SE,144,10.0,16.0,-999,-99.99,,,-99.99,,2013-01-09 23:43:00,
2013-01-09 16:20:00,58.0,-99.9,-100.00,SSE,160,11.0,14.0,-999,-99.99,,,-99.99,,2013-01-10 00:20:00,
2013-01-09 17:03:00,58.0,-99.9,-100.00,SSE,160,11.0,14.0,-999,-99.99,,,-99.99,,2013-01-10 01:03:00,
2013-01-09 17:13:00,58.0,-99.9,-100.00,SSE,160,11.0,14.0,-999,-99.99,,,-99.99,,2013-01-10 01:13:00,
2013-01-09 19:33:00,55.0,-99.9,-100.00,WSW,249,2.0,9.0,-999,-99.99,,,-99.99,,2013-01-10 03:33:00,
2013-01-09 19:43:00,55.0,-99.9,-100.00,WSW,249,2.0,9.0,-999,-99.99,,,-99.99,,2013-01-10 03:43:00,
2013-01-09 19:53:00,55.0,-99.9,-100.00,WSW,249,2.0,9.0,-999,-99.99,,,-99.99,,2013-01-10 03:53:00,
2013-01-09 20:32:00,54.0,-99.9,-100.00,South,171,6.0,11.0,-999,-99.99,,,-99.99,,2013-01-10 04:32:00,
2013-01-09 20:43:00,54.0,-99.9,-100.00,South,171,6.0,11.0,-999,-99.99,,,-99.99,,2013-01-10 04:43:00,
2013-01-09 20:53:00,54.0,-99.9,-100.00,South,171,6.0,11.0,-999,-99.99,,,-99.99,,2013-01-10 04:53:00,
2013-01-09 21:50:00,54.0,-99.9,-100.00,South,189,24.0,26.0,-999,-99.99,,,-99.99,,2013-01-10 05:50:00,
2013-01-09 22:32:00,54.0,-99.9,-100.00,South,189,24.0,26.0,-999,-99.99,,,-99.99,,2013-01-10 06:32:00,
2013-01-09 22:42:00,54.0,-99.9,-100.00,South,189,24.0,26.0,-999,-99.99,,,-99.99,,2013-01-10 06:42:00,
2013-01-09 23:02:00,54.0,-99.9,-100.00,South,180,10.0,25.0,-999,-99.99,,,-99.99,,2013-01-10 07:02:00,
2013-01-09 23:12:00,54.0,-99.9,-100.00,South,180,10.0,25.0,-999,-99.99,,,-99.99,,2013-01-10 07:12:00,
2013-01-09 23:40:00,47.0,-99.9,-100.00,SW,234,24.0,24.0,-999,-99.99,,,-99.99,,2013-01-10 07:40:00,
2013-01-09 23:42:00,48.0,-99.9,-100.00,SW,215,17.0,27.0,-999,-99.99,,,-99.99,,2013-01-10 07:42:00,
2013-01-09 23:52:00,48.0,-99.9,-100.00,SW,215,17.0,27.0,-999,-99.99,,,-99.99,,2013-01-10 07:52:00,